Cox, Georgia
Current Conditions -  °F | °C
As of 12:35 AM on Sunday 23 Nov 2014 (Local Time) from KBQK Reporting Station
NA  
Wind Chill: 64°   Ceiling: NA
Heat Index: 64°   Visibility: 10mi
Dew Point: 61°   Wind: 8mph
Humidity: 88%   Direction: 60°ENE
Pressure: 30.16"   Gusts: NA
Location:  31.5632°N, 81.4638°W
Report Text: KBQK 230535Z AUTO 06007KT 10SM 18/16 A3016 RMK AO1
Loading
Personal Weather Stations






























Interactive Weather Map New forecast layout! Learn more

10-Day Weather Forecast

Advertisements
Track Severe Weather on mobile